Chilchinbito, Arizona
Current Conditions -  °F | °C
As of 9:15 PM on Wednesday 22 Oct 2014 (Local Time) from KBDG Reporting Station
Clear Clear  
Wind Chill: 54°   Ceiling: Unl
Heat Index: 54°   Visibility: 10mi
Dew Point: 31°   Wind: 8mph
Humidity: 41%   Direction: 20°NNE
Pressure: 30.27"   Gusts: NA
Location:  36.6859°N, 110.268°W
Report Text: KBDG 230315Z AUTO 02007KT 10SM CLR 12/M01 A3027 RMK AO1 T01211008
Loading
Personal Weather Stations






























Interactive Weather Map
Tropical Storm Tracking
New forecast layout! Learn more

10-Day Weather Forecast

Advertisements
Track Severe Weather on mobile